createdAt,value
2019-02-23T00:00:31.255Z,72.90
2019-02-23T00:02:59.795Z,73.10
2019-02-23T00:05:28.620Z,72.20
2019-02-23T00:07:57.239Z,72.50
2019-02-23T00:10:25.807Z,72.90
2019-02-23T00:12:54.438Z,72.70
2019-02-23T00:15:22.967Z,72.80
2019-02-23T00:18:12.681Z,72.60
2019-02-23T00:20:41.415Z,73.00
2019-02-23T00:23:09.987Z,73.90
2019-02-23T00:25:38.887Z,74.10
2019-02-23T00:28:07.430Z,74.60
2019-02-23T00:30:36.155Z,75.00
2019-02-23T00:33:04.663Z,74.90
2019-02-23T00:35:33.210Z,75.10
2019-02-23T00:38:01.756Z,74.80
2019-02-23T00:40:30.335Z,74.60
2019-02-23T00:42:58.969Z,74.80
2019-02-23T00:45:27.511Z,74.80
2019-02-23T00:47:56.090Z,74.90
2019-02-23T00:50:24.659Z,74.80
2019-02-23T00:52:53.250Z,75.20
2019-02-23T00:55:21.800Z,75.00
2019-02-23T00:57:50.367Z,75.20
2019-02-23T01:00:19.254Z,75.80
2019-02-23T01:02:47.865Z,76.30
2019-02-23T01:05:16.403Z,76.80
2019-02-23T01:07:45.110Z,77.40
2019-02-23T01:10:13.984Z,77.40
2019-02-23T01:12:42.528Z,78.20
2019-02-23T01:15:11.632Z,78.70
2019-02-23T01:17:40.178Z,78.80
2019-02-23T01:20:29.615Z,78.90
2019-02-23T01:22:58.164Z,78.20
2019-02-23T01:25:26.767Z,78.60
2019-02-23T01:27:55.335Z,79.00
2019-02-23T01:30:23.883Z,79.10
2019-02-23T01:32:52.482Z,78.10
2019-02-23T01:35:21.059Z,78.10
2019-02-23T01:37:49.608Z,77.50
2019-02-23T01:40:18.210Z,77.30
2019-02-23T01:42:46.794Z,77.60
2019-02-23T01:45:15.412Z,77.60
2019-02-23T01:47:44.024Z,77.70
2019-02-23T01:50:12.739Z,77.50
2019-02-23T01:52:41.388Z,77.60
2019-02-23T01:55:10.081Z,77.70
2019-02-23T01:57:38.654Z,78.00
2019-02-23T02:00:11.824Z,78.30
2019-02-23T02:02:40.824Z,78.50
2019-02-23T02:05:30.251Z,78.50
2019-02-23T02:07:58.900Z,79.00
2019-02-23T02:10:27.523Z,79.20
2019-02-23T02:12:56.125Z,79.20
2019-02-23T02:15:24.783Z,79.50
2019-02-23T02:17:53.342Z,80.10
2019-02-23T02:20:21.882Z,80.40
2019-02-23T02:22:50.535Z,81.10
2019-02-23T02:25:19.254Z,81.40
2019-02-23T02:27:47.831Z,81.80
2019-02-23T02:30:16.450Z,81.90
2019-02-23T02:32:44.999Z,82.00
2019-02-23T02:35:13.574Z,82.70
2019-02-23T02:37:42.507Z,82.70
2019-02-23T02:40:11.192Z,82.60
2019-02-23T02:42:39.834Z,83.30
2019-02-23T02:45:10.544Z,84.00
2019-02-23T02:47:39.168Z,83.80
2019-02-23T02:50:28.577Z,83.60
2019-02-23T02:52:57.168Z,84.00
2019-02-23T02:55:25.719Z,84.00
2019-02-23T02:57:54.279Z,83.80
2019-02-23T03:00:22.861Z,83.90
2019-02-23T03:02:51.412Z,83.80
2019-02-23T03:05:19.962Z,83.70
2019-02-23T03:07:48.840Z,83.90
2019-02-23T03:10:17.452Z,84.00
2019-02-23T03:12:46.012Z,83.80
2019-02-23T03:15:14.896Z,83.80
2019-02-23T03:17:43.460Z,84.20
2019-02-23T03:20:12.080Z,84.40
2019-02-23T03:22:40.663Z,84.50
2019-02-23T03:25:09.345Z,84.60
2019-02-23T03:27:37.902Z,84.50
2019-02-23T03:30:09.513Z,85.40
2019-02-23T03:32:38.067Z,85.30
2019-02-23T03:35:06.764Z,84.90
2019-02-23T03:37:35.407Z,85.00
2019-02-23T03:40:04.944Z,85.00
2019-02-23T03:42:33.451Z,84.60
2019-02-23T03:45:02.045Z,84.40
2019-02-23T03:47:30.644Z,84.40
2019-02-23T03:49:59.206Z,84.60
2019-02-23T03:52:27.781Z,84.30
2019-02-23T03:54:56.325Z,84.30
2019-02-23T03:57:24.914Z,84.10
2019-02-23T03:59:53.472Z,83.90
2019-02-23T04:02:22.124Z,83.40
2019-02-23T04:04:50.948Z,83.20
2019-02-23T04:07:19.835Z,82.10
2019-02-23T04:09:48.404Z,80.50
2019-02-23T04:12:36.296Z,79.30
2019-02-23T04:15:04.762Z,78.60
2019-02-23T04:17:33.724Z,78.20
2019-02-23T04:20:02.279Z,78.20
2019-02-23T04:22:32.319Z,78.20
2019-02-23T04:25:00.925Z,78.40
2019-02-23T04:27:29.425Z,78.60
2019-02-23T04:29:58.006Z,79.50
2019-02-23T04:32:26.558Z,79.70
2019-02-23T04:34:55.122Z,79.90
2019-02-23T04:37:23.675Z,80.00
2019-02-23T04:39:52.607Z,80.10
2019-02-23T04:42:21.167Z,80.20
2019-02-23T04:44:49.764Z,80.50
2019-02-23T04:47:18.311Z,80.50
2019-02-23T04:50:07.749Z,80.40
2019-02-23T04:52:36.287Z,80.60
2019-02-23T04:55:06.594Z,80.80
2019-02-23T04:57:35.210Z,80.80
2019-02-23T05:00:04.805Z,80.70
2019-02-23T05:02:33.522Z,80.70
2019-02-23T05:05:02.085Z,80.90
2019-02-23T05:07:30.687Z,80.80
2019-02-23T05:09:59.230Z,80.70
2019-02-23T05:12:27.792Z,80.80
2019-02-23T05:14:56.459Z,81.30
2019-02-23T05:17:25.013Z,81.00
2019-02-23T05:19:53.586Z,81.20
2019-02-23T05:22:22.136Z,81.60
2019-02-23T05:24:53.401Z,82.20
2019-02-23T05:27:21.262Z,81.80
2019-02-23T05:29:50.166Z,81.80
2019-02-23T05:32:18.715Z,81.90
2019-02-23T05:34:47.262Z,81.70
2019-02-23T05:37:15.920Z,82.10
2019-02-23T05:39:44.466Z,82.00
2019-02-23T05:42:13.055Z,82.20
2019-02-23T05:44:41.606Z,82.40
2019-02-23T05:47:10.202Z,82.70
2019-02-23T05:49:38.794Z,82.90
2019-02-23T05:52:07.334Z,82.70
2019-02-23T05:54:35.909Z,82.70
2019-02-23T05:57:04.779Z,83.20
2019-02-23T05:59:33.327Z,83.30
2019-02-23T06:02:03.887Z,83.10
2019-02-23T06:04:32.438Z,83.30
2019-02-23T06:07:00.994Z,83.40
2019-02-23T06:09:29.580Z,83.80
2019-02-23T06:11:58.119Z,84.10
2019-02-23T06:14:26.720Z,84.10
2019-02-23T06:16:55.295Z,84.00
2019-02-23T06:19:23.951Z,83.90
2019-02-23T06:21:54.441Z,84.10
2019-02-23T06:24:22.787Z,83.90
2019-02-23T06:26:51.667Z,83.80
2019-02-23T06:29:20.232Z,84.10
2019-02-23T06:31:48.782Z,84.30
2019-02-23T06:34:17.606Z,84.60
2019-02-23T06:36:46.192Z,84.50
2019-02-23T06:39:15.083Z,84.40
2019-02-23T06:41:43.719Z,84.10
2019-02-23T06:44:12.556Z,84.00
2019-02-23T06:46:41.108Z,83.50
2019-02-23T06:49:09.674Z,83.70
2019-02-23T06:51:38.272Z,83.40
2019-02-23T06:54:06.846Z,83.30
2019-02-23T06:56:35.404Z,83.30
2019-02-23T06:59:03.957Z,83.30
2019-02-23T07:01:32.838Z,83.10
2019-02-23T07:04:01.453Z,83.00
2019-02-23T07:06:30.028Z,82.70
2019-02-23T07:08:58.646Z,82.30
2019-02-23T07:11:27.266Z,81.70
2019-02-23T07:13:55.859Z,81.40
2019-02-23T07:16:24.390Z,81.30
2019-02-23T07:19:12.298Z,80.20
2019-02-23T07:21:40.062Z,79.70
2019-02-23T07:24:08.601Z,77.00
2019-02-23T07:26:37.503Z,76.80
2019-02-23T07:29:06.047Z,76.60
2019-02-23T07:31:34.690Z,76.70
2019-02-23T07:34:03.568Z,74.90
2019-02-23T07:36:34.083Z,73.50
2019-02-23T07:39:02.715Z,73.90
2019-02-23T07:41:31.259Z,73.80
2019-02-23T07:43:59.838Z,73.30
2019-02-23T07:46:28.448Z,72.10
2019-02-23T07:48:57.030Z,71.00
2019-02-23T07:51:25.580Z,70.40
2019-02-23T07:53:54.233Z,68.80
2019-02-23T07:56:22.783Z,67.00
2019-02-23T07:58:51.363Z,66.00
2019-02-23T08:01:19.957Z,63.70
2019-02-23T08:03:48.499Z,61.50
2019-02-23T08:06:17.043Z,59.50
2019-02-23T08:08:45.611Z,57.70
2019-02-23T08:11:14.158Z,56.10
2019-02-23T08:13:42.734Z,52.80
2019-02-23T08:16:11.289Z,51.60
2019-02-23T08:18:39.842Z,51.60
2019-02-23T08:21:08.421Z,50.30
2019-02-23T08:23:36.967Z,49.60
2019-02-23T08:26:05.517Z,48.60
2019-02-23T08:28:34.087Z,49.50
2019-02-23T08:31:02.913Z,46.50
2019-02-23T08:33:31.447Z,44.90
2019-02-23T08:36:00.023Z,45.30
2019-02-23T08:38:28.557Z,45.00
2019-02-23T08:40:57.034Z,46.00
2019-02-23T08:43:25.623Z,46.90
2019-02-23T08:45:54.236Z,43.50
2019-02-23T08:48:22.708Z,42.60
2019-02-23T08:50:51.561Z,42.40
2019-02-23T08:53:20.098Z,41.30
2019-02-23T08:55:48.566Z,40.60
2019-02-23T08:58:17.062Z,40.50
2019-02-23T09:00:45.623Z,39.30
2019-02-23T09:03:14.167Z,40.40
2019-02-23T09:05:42.766Z,41.20
2019-02-23T09:08:11.547Z,43.00
2019-02-23T09:10:41.142Z,42.80
2019-02-23T09:13:09.931Z,40.50
2019-02-23T09:15:38.525Z,41.40
2019-02-23T09:18:07.067Z,40.80
2019-02-23T09:20:35.643Z,38.10
2019-02-23T09:23:04.193Z,38.60
2019-02-23T09:25:32.815Z,39.70
2019-02-23T09:28:01.406Z,36.30
2019-02-23T09:30:29.954Z,35.60
2019-02-23T09:32:58.492Z,32.20
2019-02-23T09:35:27.064Z,31.40
2019-02-23T09:37:55.614Z,32.50
2019-02-23T09:40:24.442Z,33.30
2019-02-23T09:42:53.085Z,32.90
2019-02-23T09:45:21.562Z,32.60
2019-02-23T09:47:50.188Z,31.60
2019-02-23T09:50:19.079Z,31.60
2019-02-23T09:52:47.631Z,32.50
2019-02-23T09:55:16.309Z,32.10
2019-02-23T09:57:44.954Z,32.00
2019-02-23T10:00:14.610Z,30.20
2019-02-23T10:02:43.195Z,30.80
2019-02-23T10:05:12.217Z,31.30
2019-02-23T10:07:40.775Z,30.10
2019-02-23T10:10:11.655Z,31.60
2019-02-23T10:12:40.297Z,29.90
2019-02-23T10:15:11.515Z,30.60
2019-02-23T10:17:40.185Z,30.00
2019-02-23T10:20:10.964Z,28.40
2019-02-23T10:22:39.943Z,30.90
2019-02-23T10:25:08.803Z,31.40
2019-02-23T10:27:37.452Z,31.00
2019-02-23T10:30:12.646Z,30.80
2019-02-23T10:32:41.154Z,32.80
2019-02-23T10:35:12.298Z,32.80
2019-02-23T10:37:40.918Z,33.00
2019-02-23T10:40:13.618Z,34.00
2019-02-23T10:42:42.206Z,35.20
2019-02-23T10:45:12.415Z,38.40
2019-02-23T10:47:41.989Z,35.60
2019-02-23T10:50:12.525Z,36.90
2019-02-23T10:52:41.495Z,37.40
2019-02-23T10:55:14.790Z,36.10
2019-02-23T10:57:43.394Z,36.70
2019-02-23T11:00:19.509Z,41.00
2019-02-23T11:02:48.521Z,39.00
2019-02-23T11:05:18.097Z,40.40
2019-02-23T11:07:47.446Z,41.00
2019-02-23T11:10:16.851Z,38.70
2019-02-23T11:12:45.575Z,38.80
2019-02-23T11:15:33.471Z,38.00
2019-02-23T11:18:03.012Z,38.70
2019-02-23T11:20:32.149Z,38.90
2019-02-23T11:23:00.710Z,42.40
2019-02-23T11:25:29.402Z,39.90
2019-02-23T11:27:58.411Z,40.60
2019-02-23T11:30:26.976Z,39.70
2019-02-23T11:32:55.522Z,38.30
2019-02-23T11:35:24.133Z,40.60
2019-02-23T11:37:52.946Z,39.50
2019-02-23T11:40:23.585Z,39.30
2019-02-23T11:42:51.998Z,40.50
2019-02-23T11:45:20.571Z,41.70
2019-02-23T11:47:49.122Z,40.30
2019-02-23T11:50:17.842Z,41.90
2019-02-23T11:52:46.396Z,40.90
2019-02-23T11:55:15.111Z,42.80
2019-02-23T11:57:43.651Z,40.30
2019-02-23T12:00:13.861Z,40.30
2019-02-23T12:02:52.165Z,40.10
2019-02-23T12:05:12.731Z,40.30
2019-02-23T12:07:41.329Z,40.10
2019-02-23T12:10:30.760Z,41.60
2019-02-23T12:12:59.294Z,43.10
2019-02-23T12:15:27.763Z,40.70
2019-02-23T12:17:56.334Z,39.80
2019-02-23T12:20:24.947Z,39.80
2019-02-23T12:22:53.486Z,40.40
2019-02-23T12:25:22.336Z,39.00
2019-02-23T12:27:50.943Z,39.10
2019-02-23T12:30:19.507Z,39.30
2019-02-23T12:32:48.053Z,38.60
2019-02-23T12:35:16.596Z,38.60
2019-02-23T12:37:45.170Z,39.10
2019-02-23T12:40:14.137Z,39.20
2019-02-23T12:42:42.711Z,38.30
2019-02-23T12:45:13.149Z,38.00
2019-02-23T12:47:41.865Z,39.30
2019-02-23T12:50:14.302Z,39.10
2019-02-23T12:52:42.922Z,36.40
2019-02-23T12:55:12.137Z,38.30
2019-02-23T12:57:40.613Z,35.10
2019-02-23T13:00:14.646Z,36.20
2019-02-23T13:02:43.305Z,37.00
2019-02-23T13:05:11.910Z,37.50
2019-02-23T13:07:40.459Z,36.40
2019-02-23T13:10:11.567Z,36.00
2019-02-23T13:15:45.603Z,36.00
2019-02-23T13:18:22.814Z,35.50
2019-02-23T13:20:54.452Z,36.70
2019-02-23T13:23:59.933Z,35.90
2019-02-23T13:26:40.519Z,35.30
2019-02-23T13:29:24.385Z,35.40
2019-02-23T13:31:59.230Z,34.70
2019-02-23T13:34:40.191Z,35.10
2019-02-23T13:37:37.647Z,34.30
2019-02-23T13:40:26.210Z,38.20
2019-02-23T13:43:21.658Z,35.00
2019-02-23T13:46:11.063Z,37.10
2019-02-23T13:48:51.846Z,35.80
2019-02-23T13:51:38.968Z,36.50
2019-02-23T13:54:38.423Z,35.60
2019-02-23T13:57:11.042Z,35.80
2019-02-23T14:00:06.535Z,34.30
2019-02-23T14:03:10.945Z,33.70
2019-02-23T14:06:10.283Z,34.90
2019-02-23T14:12:20.835Z,35.80
2019-02-23T14:15:27.075Z,33.60
2019-02-23T14:18:19.455Z,35.20
2019-02-23T14:21:09.050Z,34.10
2019-02-23T14:23:46.278Z,32.90
2019-02-23T14:26:20.850Z,32.80
2019-02-23T14:29:09.584Z,31.30
2019-02-23T14:32:14.924Z,31.90
2019-02-23T14:34:58.603Z,32.40
2019-02-23T14:37:58.221Z,32.90
2019-02-23T14:40:36.013Z,32.50
2019-02-23T14:43:13.261Z,33.30
2019-02-23T14:46:06.161Z,34.10
2019-02-23T14:49:01.580Z,29.40
2019-02-23T14:52:08.705Z,30.20
2019-02-23T14:55:00.864Z,30.20
2019-02-23T14:57:28.740Z,31.00
2019-02-23T15:00:18.573Z,31.00
2019-02-23T15:02:55.476Z,30.80
2019-02-23T15:05:27.362Z,31.60
2019-02-23T15:08:15.385Z,30.30
2019-02-23T15:11:16.633Z,30.80
2019-02-23T15:13:53.911Z,31.30
2019-02-23T15:16:37.395Z,30.30
2019-02-23T15:19:39.163Z,32.50
2019-02-23T15:22:10.959Z,31.60
2019-02-23T15:25:00.351Z,31.20
2019-02-23T15:27:43.751Z,32.50
2019-02-23T15:30:17.902Z,31.90
2019-02-23T15:32:51.309Z,32.30
2019-02-23T15:35:55.874Z,32.90
2019-02-23T15:42:05.835Z,33.00
2019-02-23T15:44:55.269Z,33.30
2019-02-23T15:47:29.634Z,34.20
2019-02-23T15:49:58.174Z,32.20
2019-02-23T15:52:26.697Z,31.80
2019-02-23T15:54:55.393Z,32.60
2019-02-23T15:57:24.422Z,33.20
2019-02-23T15:59:53.034Z,33.30
2019-02-23T16:02:41.007Z,32.80
2019-02-23T16:05:09.135Z,33.40
2019-02-23T16:07:37.073Z,33.50
2019-02-23T16:10:05.778Z,34.00
2019-02-23T16:12:34.672Z,33.80
2019-02-23T16:15:03.286Z,33.40
2019-02-23T16:17:31.873Z,34.10
2019-02-23T16:20:00.565Z,32.80
2019-02-23T16:22:29.503Z,33.00
2019-02-23T16:24:58.051Z,32.80
2019-02-23T16:27:26.642Z,33.80
2019-02-23T16:29:55.196Z,33.40
2019-02-23T16:32:24.039Z,33.40
2019-02-23T16:34:52.587Z,32.80
2019-02-23T16:37:21.187Z,32.80
2019-02-23T16:39:49.740Z,31.90
2019-02-23T16:42:18.581Z,32.20
2019-02-23T16:44:47.472Z,32.20
2019-02-23T16:47:16.030Z,32.70
2019-02-23T16:49:44.579Z,32.80
2019-02-23T16:52:13.559Z,33.30
2019-02-23T16:54:42.106Z,33.50
2019-02-23T16:57:10.710Z,34.70
2019-02-23T16:59:39.284Z,34.50
2019-02-23T17:02:27.511Z,34.60
2019-02-23T17:04:56.400Z,35.10
2019-02-23T17:07:25.291Z,34.80
2019-02-23T17:09:53.831Z,35.80
2019-02-23T17:12:22.356Z,35.00
2019-02-23T17:14:50.968Z,36.20
2019-02-23T17:17:19.582Z,35.70
2019-02-23T17:19:48.175Z,36.20
2019-02-23T17:22:16.727Z,36.00
2019-02-23T17:24:45.307Z,36.40
2019-02-23T17:27:13.879Z,37.00
2019-02-23T17:29:42.427Z,37.70
2019-02-23T17:32:11.014Z,38.00
2019-02-23T17:34:40.011Z,38.20
2019-02-23T17:37:08.557Z,39.10
2019-02-23T17:39:37.114Z,38.80
2019-02-23T17:42:06.465Z,39.30
2019-02-23T17:44:35.004Z,39.10
2019-02-23T17:47:03.542Z,39.20
2019-02-23T17:49:32.186Z,39.60
2019-02-23T17:52:01.031Z,40.10
2019-02-23T17:54:29.653Z,40.80
2019-02-23T17:56:58.211Z,41.80
2019-02-23T17:59:26.791Z,42.70
2019-02-23T18:01:55.407Z,43.40
2019-02-23T18:04:23.967Z,43.40
2019-02-23T18:06:52.570Z,44.30
2019-02-23T18:09:21.195Z,45.10
2019-02-23T18:11:49.814Z,46.00
2019-02-23T18:14:18.368Z,47.10
2019-02-23T18:16:46.894Z,47.10
2019-02-23T18:19:15.474Z,48.80
2019-02-23T18:21:45.326Z,48.40
2019-02-23T18:24:13.861Z,48.90
2019-02-23T18:26:42.442Z,49.60
2019-02-23T18:29:11.017Z,50.10
2019-02-23T18:31:39.614Z,50.60
2019-02-23T18:34:08.546Z,48.70
2019-02-23T18:36:37.337Z,49.00
2019-02-23T18:39:06.229Z,47.40
2019-02-23T18:41:34.867Z,48.10
2019-02-23T18:44:03.475Z,47.00
2019-02-23T18:46:32.096Z,47.10
2019-02-23T18:49:00.672Z,47.20
2019-02-23T18:51:29.291Z,48.10
2019-02-23T18:53:57.783Z,48.10
2019-02-23T18:56:29.554Z,48.00
2019-02-23T18:58:56.586Z,48.10
2019-02-23T19:01:25.159Z,48.60
2019-02-23T19:03:53.795Z,49.20
2019-02-23T19:06:22.494Z,49.40
2019-02-23T19:08:51.086Z,49.80
2019-02-23T19:11:19.739Z,50.20
2019-02-23T19:13:48.325Z,50.30
2019-02-23T19:16:16.867Z,51.00
2019-02-23T19:18:45.492Z,51.00
2019-02-23T19:21:14.074Z,51.20
2019-02-23T19:23:42.561Z,51.60
2019-02-23T19:26:11.449Z,51.90
2019-02-23T19:28:43.264Z,52.10
2019-02-23T19:31:10.365Z,51.60
2019-02-23T19:33:38.913Z,52.50
2019-02-23T19:36:07.504Z,52.50
2019-02-23T19:38:36.089Z,52.60
2019-02-23T19:41:04.671Z,52.70
2019-02-23T19:43:33.571Z,52.70
2019-02-23T19:46:02.119Z,53.00
2019-02-23T19:48:30.735Z,53.50
2019-02-23T19:51:20.166Z,54.00
2019-02-23T19:53:49.569Z,54.50
2019-02-23T19:56:19.010Z,54.90
2019-02-23T19:58:47.553Z,54.80
2019-02-23T20:01:16.143Z,55.70
2019-02-23T20:03:44.967Z,55.90
2019-02-23T20:06:13.530Z,56.60
2019-02-23T20:08:42.078Z,57.90
2019-02-23T20:11:10.920Z,58.40
2019-02-23T20:13:39.814Z,59.00
2019-02-23T20:16:08.419Z,60.00
2019-02-23T20:18:37.100Z,61.20
2019-02-23T20:21:05.572Z,61.70
2019-02-23T20:23:34.407Z,63.30
2019-02-23T20:26:03.259Z,62.80
2019-02-23T20:28:32.040Z,62.30
2019-02-23T20:31:00.756Z,61.90
2019-02-23T20:33:30.697Z,62.30
2019-02-23T20:36:00.889Z,62.10
2019-02-23T20:38:29.614Z,62.10
2019-02-23T20:40:58.420Z,62.10
2019-02-23T20:43:26.963Z,61.50
2019-02-23T20:45:55.549Z,62.30
2019-02-23T20:48:24.377Z,61.20
2019-02-23T20:50:52.930Z,60.90
2019-02-23T20:53:21.702Z,60.60
2019-02-23T20:55:50.262Z,60.80
2019-02-23T20:58:18.851Z,60.30
2019-02-23T21:00:47.692Z,60.50
2019-02-23T21:03:16.255Z,60.30
2019-02-23T21:05:44.982Z,60.60
2019-02-23T21:08:13.576Z,60.50
2019-02-23T21:10:42.135Z,60.50
2019-02-23T21:13:12.188Z,60.80
2019-02-23T21:15:40.806Z,61.90
2019-02-23T21:18:09.300Z,62.60
2019-02-23T21:20:37.919Z,63.00
2019-02-23T21:23:06.470Z,63.00
2019-02-23T21:25:35.359Z,63.30
2019-02-23T21:28:04.240Z,63.50
2019-02-23T21:30:32.760Z,64.10
2019-02-23T21:33:01.458Z,63.70
2019-02-23T21:35:31.725Z,63.70
2019-02-23T21:38:00.846Z,64.40
2019-02-23T21:40:29.700Z,64.50
2019-02-23T21:43:17.774Z,64.80
2019-02-23T21:45:48.069Z,64.80
2019-02-23T21:48:16.803Z,65.80
2019-02-23T21:50:46.958Z,67.10
2019-02-23T21:53:15.565Z,67.30
2019-02-23T21:55:44.523Z,67.20
2019-02-23T21:58:13.259Z,67.70
2019-02-23T22:00:41.820Z,67.70
2019-02-23T22:03:10.560Z,68.10
2019-02-23T22:05:39.891Z,68.60
2019-02-23T22:08:08.708Z,68.30
2019-02-23T22:10:37.387Z,69.20
2019-02-23T22:13:05.987Z,68.90
2019-02-23T22:15:34.980Z,68.90
2019-02-23T22:18:03.856Z,69.30
2019-02-23T22:20:32.691Z,69.40
2019-02-23T22:23:01.566Z,69.40
2019-02-23T22:25:49.391Z,69.40
2019-02-23T22:28:17.255Z,70.00
2019-02-23T22:30:45.845Z,70.60
2019-02-23T22:33:14.487Z,70.90
2019-02-23T22:35:42.999Z,71.30
2019-02-23T22:38:30.925Z,71.30
2019-02-23T22:40:58.789Z,71.40
2019-02-23T22:43:27.657Z,71.50
2019-02-23T22:45:56.223Z,72.10
2019-02-23T22:48:24.770Z,72.40
2019-02-23T22:50:53.655Z,72.90
2019-02-23T22:53:22.216Z,72.30
2019-02-23T22:55:50.763Z,72.50
2019-02-23T22:58:19.261Z,72.30
2019-02-23T23:03:42.989Z,72.70
2019-02-23T23:06:11.526Z,73.40
2019-02-23T23:08:40.075Z,73.80
2019-02-23T23:11:08.647Z,73.40
2019-02-23T23:13:37.207Z,74.00
2019-02-23T23:16:05.916Z,74.10
2019-02-23T23:18:34.488Z,74.10
2019-02-23T23:21:04.519Z,75.10
2019-02-23T23:23:33.095Z,75.10
2019-02-23T23:26:01.938Z,75.10
2019-02-23T23:28:30.579Z,74.90
2019-02-23T23:30:59.117Z,74.70
2019-02-23T23:33:27.662Z,75.70
2019-02-23T23:35:56.178Z,75.10
2019-02-23T23:38:24.730Z,76.90
2019-02-23T23:41:12.635Z,76.50
2019-02-23T23:43:40.673Z,76.70
2019-02-23T23:46:08.362Z,76.70
2019-02-23T23:48:37.204Z,76.50
2019-02-23T23:51:05.750Z,76.90
2019-02-23T23:53:34.695Z,77.80
2019-02-23T23:56:03.291Z,78.70
2019-02-23T23:58:31.858Z,78.60
